Amstetten, Austria

5:31 AM CET on December 08, 2016 (GMT +0100)
Am Kreuzberg | | Change Station

Elev 971 ft 48.12 °N, 14.87 °E | Updated 6 minutes ago

Overcast
Overcast
30.2 °F
Feels Like 30 °F
N
0.6
Wind Variable Wind from East
Gusts 2.5 mph

Today
High -- | Low -- °F
--% Chance of Precip.
Yesterday
High -- | Low -- °F
Precip. -- in
Pressure 30.60 in
Visibility 1.2 miles
Clouds Scattered Clouds 100 ft
Overcast 200 ft
Windchill 30 °F
Dew Point 29 °F
Humidity 95%
Rainfall 0.00 in
Snow Depth Not available.
7:37 AM 4:06 PM
First Quarter, 59% visible
METAR LOWL 080420Z 30004KT 2000 FZBR SCT001 OVC002 M03/M04 Q1036 TEMPO 0800 FZFG VV001
Pressure 30.60 in
Visibility 1.2 miles
Clouds Scattered Clouds 100 ft
Overcast 200 ft
Windchill 30 °F
Dew Point 29 °F
Humidity 95%
Rainfall 0.00 in
Snow Depth Not available.
7:37 AM 4:06 PM
First Quarter, 59% visible
METAR LOWL 080420Z 30004KT 2000 FZBR SCT001 OVC002 M03/M04 Q1036 TEMPO 0800 FZFG VV001

10-Day Weather Forecast

×

Almanac

Astronomy

Dec. 08, 2016 Rise Set
Actual Time
Civil Twilight
Nautical Twilight
Astronomical Twilight
Moon
Length of Visible Light
Length of Day
Tomorrow will be .
, % of the Moon is Illuminated

Today's Extremes

Country Highs Country Lows

Community

WunderPhotos

Upload Photos

1,956,259 photos uploaded!

WunderBlog® & News

Nearby

Air Quality

  Air Quality AQ Index Pollutant
Not available.

Snow Depth

Station Depth Elevation

Earthquake Activity

City Distance Mag. Time & Date
Minimum magnitude displayed is 2.5.

Coastal Water Temperatures

Place Temperature

Stations

Nearby Weather Stations

Station Location Temp. Windchill Dew Point Humidity Wind Precip. Elev Updated Type